Time;durP1;ratioP1;P1;durP2;ratioP2;P2;SDS_P1;SDS_P2;PMS_P1;PMS_P2;Temp;Humidity;BMP_temperature;BMP_pressure;BME280_temperature;BME280_humidity;BME280_pressure;Samples;Min_cycle;Max_cycle;Signal;HPM_P1;HPM_P2
2022/10/26 00:02:08;;;;;;;2.80;1.80;;;12.90;99.90;;;;;;5110266;28;20440;-71
2022/10/26 00:04:35;;;;;;;2.30;1.63;;;13.00;99.90;;;;;;5110924;28;20491;-71
2022/10/26 00:07:02;;;;;;;4.17;1.80;;;13.00;99.90;;;;;;5110760;28;20448;-71
2022/10/26 00:09:28;;;;;;;3.00;1.73;;;13.00;99.90;;;;;;5111417;28;20799;-71
2022/10/26 00:11:55;;;;;;;3.40;1.70;;;12.90;99.90;;;;;;5111699;28;20473;-71
2022/10/26 00:14:22;;;;;;;3.63;1.63;;;12.90;99.90;;;;;;5112429;28;20447;-71
2022/10/26 00:16:50;;;;;;;2.70;1.73;;;12.80;99.90;;;;;;5115834;28;20464;-71
2022/10/26 00:19:17;;;;;;;2.97;1.50;;;12.90;99.90;;;;;;5115225;28;20443;-70
2022/10/26 00:21:44;;;;;;;2.17;1.37;;;12.90;99.90;;;;;;5115440;28;20447;-71
2022/10/26 00:24:11;;;;;;;3.40;1.57;;;12.80;99.90;;;;;;5114321;28;20480;-71
2022/10/26 00:26:38;;;;;;;4.10;1.80;;;12.90;99.90;;;;;;5115450;28;20473;-71
2022/10/26 00:29:06;;;;;;;2.27;1.70;;;12.90;99.90;;;;;;5114838;28;20726;-71
2022/10/26 00:31:33;;;;;;;2.17;1.40;;;12.90;99.90;;;;;;5115365;28;20450;-71
2022/10/26 00:34:01;;;;;;;2.27;1.90;;;12.90;99.90;;;;;;5113985;28;20451;-71
2022/10/26 00:36:28;;;;;;;2.07;1.53;;;12.80;99.90;;;;;;5115239;28;20447;-71
2022/10/26 00:38:56;;;;;;;1.73;1.63;;;12.80;99.90;;;;;;5114963;28;20456;-71
2022/10/26 00:41:25;;;;;;;4.20;2.07;;;12.80;99.90;;;;;;5115113;28;20808;-71
2022/10/26 00:43:53;;;;;;;2.20;1.77;;;12.80;99.90;;;;;;5114118;28;20451;-71
2022/10/26 00:46:23;;;;;;;2.83;1.83;;;12.90;99.90;;;;;;5114428;28;20459;-71
2022/10/26 00:48:53;;;;;;;1.60;1.30;;;12.90;99.90;;;;;;5114833;28;20480;-70
2022/10/26 00:51:25;;;;;;;1.70;1.40;;;12.90;99.90;;;;;;5114216;28;20447;-70
2022/10/26 00:53:54;;;;;;;2.97;1.27;;;12.90;99.90;;;;;;5114504;28;20444;-71
2022/10/26 00:56:21;;;;;;;2.00;1.50;;;12.80;99.90;;;;;;5113964;28;20950;-71
2022/10/26 00:58:48;;;;;;;1.37;1.13;;;12.80;99.90;;;;;;5114568;28;20935;-71
2022/10/26 01:01:15;;;;;;;2.27;1.37;;;12.80;99.90;;;;;;5113663;28;20946;-71
2022/10/26 01:03:43;;;;;;;1.97;1.40;;;12.80;99.90;;;;;;5100330;28;20954;-71
2022/10/26 01:06:11;;;;;;;5.13;1.77;;;12.80;99.90;;;;;;5113662;28;20536;-71
2022/10/26 01:08:40;;;;;;;1.93;1.80;;;12.80;99.90;;;;;;5114458;28;20444;-70
2022/10/26 01:11:07;;;;;;;2.13;1.33;;;12.80;99.90;;;;;;5113680;28;20538;-71
2022/10/26 01:13:36;;;;;;;1.80;1.70;;;12.80;99.90;;;;;;5114190;28;20447;-71
2022/10/26 01:16:16;;;;;;;4.73;2.00;;;12.80;99.90;;;;;;5113725;28;20491;-71
2022/10/26 01:18:53;;;;;;;3.00;1.80;;;12.80;99.90;;;;;;5114174;28;20927;-71
2022/10/26 01:21:41;;;;;;;4.20;1.60;;;12.80;99.90;;;;;;5113598;28;20462;-71
2022/10/26 01:24:28;;;;;;;5.30;1.80;;;12.80;99.90;;;;;;5113053;28;20546;-70
2022/10/26 01:27:06;;;;;;;2.60;1.57;;;12.80;99.90;;;;;;5113055;28;20444;-70
2022/10/26 01:30:13;;;;;;;3.77;1.70;;;12.80;99.90;;;;;;5114241;28;20440;-71
2022/10/26 01:32:46;;;;;;;2.00;1.70;;;13.00;99.90;;;;;;5113357;28;20443;-71
2022/10/26 01:35:17;;;;;;;1.93;1.60;;;13.00;99.90;;;;;;5113618;28;20788;-70
2022/10/26 01:37:48;;;;;;;3.80;1.67;;;13.00;99.90;;;;;;5113748;28;20447;-70
2022/10/26 01:40:20;;;;;;;2.40;1.57;;;13.20;99.90;;;;;;5113485;28;20802;-70
2022/10/26 01:42:51;;;;;;;4.23;1.60;;;13.10;99.90;;;;;;5100977;28;20796;-70
2022/10/26 01:45:20;;;;;;;3.60;1.70;;;13.00;99.90;;;;;;5113181;28;20688;-71
2022/10/26 01:47:48;;;;;;;6.10;1.73;;;13.00;99.90;;;;;;5113364;28;20533;-70
2022/10/26 01:50:16;;;;;;;2.37;1.70;;;13.20;99.90;;;;;;5112912;28;20479;-71
2022/10/26 01:52:43;;;;;;;1.80;1.57;;;13.30;99.90;;;;;;5113280;28;20439;-71
2022/10/26 01:55:48;;;;;;;2.57;2.33;;;13.20;99.90;;;;;;5112718;28;20448;-71
2022/10/26 01:58:40;;;;;;;2.33;1.90;;;13.20;99.90;;;;;;5096856;28;20451;-70
2022/10/26 02:01:20;;;;;;;3.50;1.60;;;13.20;99.90;;;;;;5112497;28;20436;-71
2022/10/26 02:03:54;;;;;;;1.30;1.13;;;13.30;99.90;;;;;;5099740;28;20447;-71
2022/10/26 02:06:31;;;;;;;1.60;1.30;;;13.20;99.90;;;;;;5112250;28;20478;-71
2022/10/26 02:09:06;;;;;;;1.43;1.33;;;13.20;99.90;;;;;;5113526;28;20519;-70
2022/10/26 02:11:39;;;;;;;3.50;1.23;;;13.10;99.90;;;;;;5113123;28;20444;-70
2022/10/26 02:14:17;;;;;;;1.43;1.27;;;13.10;99.90;;;;;;5112149;28;20463;-70
2022/10/26 02:16:52;;;;;;;2.17;1.90;;;13.00;99.90;;;;;;5113368;28;20456;-70
2022/10/26 02:19:29;;;;;;;2.30;1.60;;;12.90;99.90;;;;;;5112569;28;20444;-71
2022/10/26 02:22:02;;;;;;;1.70;1.40;;;12.70;99.90;;;;;;5112718;28;20443;-71
2022/10/26 02:24:31;;;;;;;1.33;1.23;;;12.80;99.90;;;;;;5112798;28;20450;-70
2022/10/26 02:27:00;;;;;;;3.10;1.60;;;12.70;99.90;;;;;;5112976;28;20447;-70
2022/10/26 02:29:28;;;;;;;2.00;1.10;;;12.70;99.90;;;;;;5113030;28;20459;-73
2022/10/26 02:31:57;;;;;;;1.90;1.40;;;12.70;99.90;;;;;;5112259;28;20456;-70
2022/10/26 02:34:26;;;;;;;1.83;1.27;;;12.70;99.90;;;;;;5112895;28;20448;-70
2022/10/26 02:36:57;;;;;;;2.70;1.43;;;12.70;99.90;;;;;;5112138;28;20440;-70
2022/10/26 02:39:26;;;;;;;3.00;1.67;;;12.70;99.90;;;;;;5112977;28;20489;-70
2022/10/26 02:41:54;;;;;;;1.90;1.60;;;12.70;99.90;;;;;;5112074;28;20785;-70
2022/10/26 02:44:25;;;;;;;7.30;1.90;;;12.70;99.90;;;;;;5111953;28;20444;-70
2022/10/26 02:46:53;;;;;;;4.10;1.90;;;12.80;99.90;;;;;;5112319;28;20448;-70
2022/10/26 02:49:21;;;;;;;1.77;1.37;;;12.70;99.90;;;;;;5111754;28;20486;-70
2022/10/26 02:51:54;;;;;;;2.50;1.37;;;12.70;99.90;;;;;;5111753;28;20555;-70
2022/10/26 02:54:29;;;;;;;2.40;1.57;;;12.70;99.90;;;;;;5111925;28;20444;-70
2022/10/26 02:57:01;;;;;;;1.50;1.40;;;12.60;99.90;;;;;;5112404;28;20435;-70
2022/10/26 02:59:33;;;;;;;2.80;1.67;;;12.60;99.90;;;;;;5112550;28;20453;-71
2022/10/26 03:02:01;;;;;;;3.03;1.70;;;12.70;99.90;;;;;;5111036;28;20443;-71
2022/10/26 03:04:30;;;;;;;2.13;1.70;;;12.70;99.90;;;;;;5112419;28;20444;-71
2022/10/26 03:06:57;;;;;;;2.43;1.53;;;12.70;99.90;;;;;;5098485;28;20491;-70
2022/10/26 03:09:24;;;;;;;2.30;1.20;;;12.80;99.90;;;;;;5112173;28;20448;-71
2022/10/26 03:11:51;;;;;;;1.37;1.23;;;12.90;99.90;;;;;;5111442;28;20474;-70
2022/10/26 03:14:18;;;;;;;2.10;1.40;;;12.90;99.90;;;;;;5111326;28;20448;-70
2022/10/26 03:16:45;;;;;;;2.10;1.40;;;13.00;99.90;;;;;;5111836;28;20459;-72
2022/10/26 03:19:12;;;;;;;5.57;1.50;;;13.10;99.90;;;;;;5111370;28;20455;-70
2022/10/26 03:21:41;;;;;;;5.40;1.70;;;13.10;99.90;;;;;;5111777;28;20456;-71
2022/10/26 03:24:08;;;;;;;2.27;1.50;;;13.10;99.90;;;;;;5110705;28;20440;-70
2022/10/26 03:26:34;;;;;;;1.30;1.20;;;12.90;99.90;;;;;;5111686;28;20483;-70
2022/10/26 03:29:01;;;;;;;1.90;1.13;;;12.90;99.90;;;;;;5110841;28;20888;-71
2022/10/26 03:31:28;;;;;;;2.47;1.40;;;13.00;99.90;;;;;;5111863;28;20456;-70
2022/10/26 03:33:55;;;;;;;1.57;1.33;;;13.00;99.90;;;;;;5111115;28;20452;-70
2022/10/26 03:36:22;;;;;;;2.00;1.33;;;13.00;99.90;;;;;;5111194;28;20452;-70
2022/10/26 03:38:50;;;;;;;3.20;1.07;;;12.90;99.90;;;;;;5111295;28;20447;-70
2022/10/26 03:41:17;;;;;;;1.43;1.13;;;13.00;99.90;;;;;;5110924;28;20443;-69
2022/10/26 03:43:43;;;;;;;2.50;1.70;;;13.00;99.90;;;;;;5111192;28;20460;-70
2022/10/26 03:46:10;;;;;;;3.93;1.57;;;13.00;99.90;;;;;;5111108;28;20502;-70
2022/10/26 03:48:37;;;;;;;2.13;1.30;;;13.10;99.90;;;;;;5110628;28;20509;-70
2022/10/26 03:51:04;;;;;;;1.67;1.43;;;13.10;99.90;;;;;;5111164;28;20450;-70
2022/10/26 03:53:31;;;;;;;2.90;1.50;;;13.10;99.90;;;;;;5110899;28;20444;-72
2022/10/26 03:55:59;;;;;;;3.93;1.27;;;13.10;99.90;;;;;;5111298;28;20968;-71
2022/10/26 03:58:26;;;;;;;1.30;1.10;;;13.10;99.90;;;;;;5111543;28;20448;-71
2022/10/26 04:00:53;;;;;;;4.43;1.20;;;13.20;99.90;;;;;;5111396;28;20448;-72
2022/10/26 04:03:19;;;;;;;2.50;1.23;;;13.20;99.90;;;;;;5110467;28;20539;-72
2022/10/26 04:05:46;;;;;;;2.47;2.03;;;13.20;99.90;;;;;;5111397;28;20484;-71
2022/10/26 04:08:13;;;;;;;3.00;1.77;;;13.10;99.90;;;;;;5112235;28;20455;-71
2022/10/26 04:10:40;;;;;;;3.10;1.63;;;13.10;99.90;;;;;;5115798;28;20448;-71
2022/10/26 04:13:09;;;;;;;2.53;2.03;;;13.10;99.90;;;;;;5116171;28;20483;-71
2022/10/26 04:15:36;;;;;;;3.07;2.03;;;13.10;99.90;;;;;;5119026;28;20785;-71
2022/10/26 04:18:03;;;;;;;2.53;1.60;;;13.10;99.90;;;;;;5119722;28;20444;-70
2022/10/26 04:20:32;;;;;;;2.63;1.40;;;13.10;99.90;;;;;;5121184;28;20448;-70
2022/10/26 04:23:01;;;;;;;2.10;1.90;;;13.10;99.90;;;;;;5120743;28;20450;-71
2022/10/26 04:25:28;;;;;;;3.40;1.70;;;13.10;99.90;;;;;;5122143;28;20483;-70
2022/10/26 04:27:55;;;;;;;2.70;1.70;;;13.10;99.90;;;;;;5122476;28;20443;-71
2022/10/26 04:30:24;;;;;;;2.37;1.60;;;13.20;99.90;;;;;;5119490;28;20452;-71
2022/10/26 04:32:51;;;;;;;1.67;1.47;;;13.30;99.90;;;;;;5110019;28;20763;-72
2022/10/26 04:35:18;;;;;;;2.30;1.80;;;13.20;99.90;;;;;;5110801;28;20451;-71
2022/10/26 04:37:44;;;;;;;3.13;1.67;;;13.30;99.90;;;;;;5110510;28;20440;-71
2022/10/26 04:40:12;;;;;;;3.70;1.60;;;13.40;99.90;;;;;;5110317;28;20935;-71
2022/10/26 04:42:42;;;;;;;1.90;1.80;;;13.50;99.90;;;;;;5110037;28;20444;-71
2022/10/26 04:45:10;;;;;;;3.27;1.60;;;13.70;99.90;;;;;;5104390;28;20534;-71
2022/10/26 04:47:38;;;;;;;1.77;1.63;;;13.70;99.90;;;;;;5111475;28;20470;-71
2022/10/26 04:50:06;;;;;;;2.00;1.63;;;13.70;99.90;;;;;;5110217;28;20483;-71
2022/10/26 04:52:34;;;;;;;3.10;1.37;;;13.70;99.90;;;;;;5110238;28;20474;-71
2022/10/26 04:55:04;;;;;;;3.20;1.87;;;13.70;99.90;;;;;;5110141;28;20448;-71
2022/10/26 04:57:31;;;;;;;1.60;1.33;;;13.70;99.90;;;;;;5098953;28;20454;-71
2022/10/26 04:59:59;;;;;;;1.40;1.20;;;13.70;99.90;;;;;;5110385;28;20448;-71
2022/10/26 05:02:26;;;;;;;4.23;1.50;;;13.70;99.90;;;;;;5113675;28;20459;-72
2022/10/26 05:04:54;;;;;;;2.27;1.97;;;13.80;99.90;;;;;;5114480;28;20451;-72
2022/10/26 05:07:21;;;;;;;5.47;1.93;;;13.80;99.90;;;;;;5114353;28;20479;-71
2022/10/26 05:09:47;;;;;;;1.97;1.50;;;13.80;99.90;;;;;;5114807;28;20811;-71
2022/10/26 05:12:14;;;;;;;2.17;1.50;;;13.80;99.90;;;;;;5113968;28;20470;-71
2022/10/26 05:14:41;;;;;;;2.70;1.50;;;13.80;99.90;;;;;;5114715;28;20453;-72
2022/10/26 05:17:08;;;;;;;2.83;1.50;;;13.80;99.90;;;;;;5114371;28;20458;-75
2022/10/26 05:19:35;;;;;;;6.20;1.80;;;13.80;99.90;;;;;;5114383;28;20539;-74
2022/10/26 05:22:03;;;;;;;3.90;1.80;;;13.80;99.90;;;;;;5112832;28;20454;-73
2022/10/26 05:24:30;;;;;;;1.70;1.37;;;13.80;99.90;;;;;;5112097;28;20436;-72
2022/10/26 05:26:57;;;;;;;2.30;1.63;;;13.80;99.90;;;;;;5113770;27;20579;-72
2022/10/26 05:29:24;;;;;;;2.90;1.90;;;13.90;99.90;;;;;;5113625;28;20806;-72
2022/10/26 05:31:51;;;;;;;2.43;1.57;;;14.00;99.90;;;;;;5113415;28;20444;-73
2022/10/26 05:34:18;;;;;;;1.90;1.63;;;14.00;99.90;;;;;;5113203;28;20456;-73
2022/10/26 05:36:45;;;;;;;2.20;1.63;;;14.10;99.90;;;;;;5113890;28;20794;-72
2022/10/26 05:39:13;;;;;;;3.67;1.90;;;14.00;99.90;;;;;;5113234;28;20431;-76
2022/10/26 05:41:40;;;;;;;3.70;1.53;;;14.00;99.90;;;;;;5114576;27;20440;-74
2022/10/26 05:44:06;;;;;;;1.70;1.50;;;14.00;99.90;;;;;;5114026;28;20447;-74
2022/10/26 05:46:33;;;;;;;1.30;1.17;;;14.10;99.90;;;;;;5114791;28;20491;-74
2022/10/26 05:49:00;;;;;;;2.13;1.27;;;14.10;99.90;;;;;;5113305;28;20814;-73
2022/10/26 05:51:27;;;;;;;4.20;1.20;;;14.10;99.90;;;;;;5112773;28;20907;-74
2022/10/26 05:53:54;;;;;;;2.20;1.70;;;14.10;99.90;;;;;;5114815;28;20444;-74
2022/10/26 05:56:35;;;;;;;2.70;1.67;;;14.10;99.90;;;;;;5105689;28;20485;-74
2022/10/26 05:59:03;;;;;;;2.73;1.93;;;14.10;99.90;;;;;;5113582;28;20435;-73
2022/10/26 06:01:38;;;;;;;3.10;2.00;;;14.20;99.90;;;;;;5114306;28;20436;-74
2022/10/26 06:04:25;;;;;;;3.00;1.40;;;14.20;99.90;;;;;;5113405;28;20895;-74
2022/10/26 06:06:54;;;;;;;3.50;1.60;;;14.40;99.90;;;;;;5114117;28;20554;-74
2022/10/26 06:09:22;;;;;;;2.17;0.97;;;14.50;99.90;;;;;;5113083;28;20919;-74
2022/10/26 06:11:51;;;;;;;2.07;1.77;;;14.50;99.90;;;;;;5113612;28;20475;-74
2022/10/26 06:14:18;;;;;;;3.60;1.63;;;14.50;99.90;;;;;;5113282;28;20788;-74
2022/10/26 06:17:00;;;;;;;5.50;1.70;;;14.60;99.90;;;;;;5113906;28;20459;-74
2022/10/26 06:19:45;;;;;;;5.87;1.60;;;14.50;99.90;;;;;;5114144;28;20436;-74
2022/10/26 06:22:27;;;;;;;3.20;1.83;;;14.50;99.90;;;;;;5112861;28;20438;-74
2022/10/26 06:25:01;;;;;;;5.17;2.07;;;14.60;99.90;;;;;;5113932;28;20440;-74
2022/10/26 06:27:38;;;;;;;2.23;1.50;;;14.50;99.90;;;;;;5114019;28;20466;-74
2022/10/26 06:30:08;;;;;;;2.37;1.37;;;14.50;99.90;;;;;;5112612;28;20956;-74
2022/10/26 06:32:36;;;;;;;4.00;2.03;;;14.40;99.90;;;;;;5113752;28;20514;-74
2022/10/26 06:35:19;;;;;;;2.07;1.47;;;14.30;99.90;;;;;;5113079;28;20779;-73
2022/10/26 06:37:47;;;;;;;3.53;1.57;;;14.30;99.90;;;;;;5111923;28;20427;-75
2022/10/26 06:40:16;;;;;;;2.47;1.33;;;14.20;99.90;;;;;;5111308;28;20799;-74
2022/10/26 06:42:45;;;;;;;2.40;1.70;;;14.30;99.90;;;;;;5113803;28;20439;-74
2022/10/26 06:45:14;;;;;;;3.27;1.63;;;14.30;99.90;;;;;;5112609;28;20436;-74
2022/10/26 06:47:49;;;;;;;2.80;1.77;;;14.30;99.90;;;;;;5113319;28;20472;-74
2022/10/26 06:50:30;;;;;;;1.70;1.40;;;14.40;99.90;;;;;;5112092;28;20467;-74
2022/10/26 06:53:05;;;;;;;1.37;1.27;;;14.50;99.90;;;;;;5104827;28;20436;-75
2022/10/26 06:55:40;;;;;;;3.53;1.20;;;14.70;99.90;;;;;;5113123;28;20906;-75
2022/10/26 06:58:14;;;;;;;2.47;1.90;;;14.80;99.90;;;;;;5112883;28;20921;-74
2022/10/26 07:00:42;;;;;;;1.70;1.30;;;14.80;99.90;;;;;;5112770;28;20525;-75
2022/10/26 07:03:09;;;;;;;2.53;1.50;;;15.00;99.90;;;;;;5112467;28;20454;-75
2022/10/26 07:05:36;;;;;;;2.57;1.40;;;15.10;99.90;;;;;;5112949;28;20444;-75
2022/10/26 07:08:03;;;;;;;2.40;1.37;;;15.20;99.90;;;;;;5111103;28;20483;-74
2022/10/26 07:10:29;;;;;;;2.67;1.30;;;15.10;99.90;;;;;;5113014;28;20780;-75
2022/10/26 07:12:56;;;;;;;1.20;0.77;;;15.10;99.90;;;;;;5112976;28;20962;-75
2022/10/26 07:15:25;;;;;;;5.40;1.50;;;15.10;99.90;;;;;;5112536;28;20442;-75
2022/10/26 07:17:51;;;;;;;2.10;1.57;;;15.20;99.90;;;;;;5112937;28;20780;-75
2022/10/26 07:20:20;;;;;;;5.60;1.50;;;15.20;99.90;;;;;;5111518;28;20759;-75
2022/10/26 07:22:52;;;;;;;2.43;1.10;;;15.20;99.90;;;;;;5112205;28;20436;-75
2022/10/26 07:25:19;;;;;;;2.43;1.10;;;15.30;99.90;;;;;;5112008;28;20701;-74
2022/10/26 07:27:46;;;;;;;2.57;1.63;;;15.40;99.90;;;;;;5112584;28;21006;-75
2022/10/26 07:30:14;;;;;;;3.27;1.90;;;15.30;99.90;;;;;;5111402;28;20440;-75
2022/10/26 07:32:42;;;;;;;2.13;1.10;;;15.30;99.90;;;;;;5112814;28;20440;-75
2022/10/26 07:35:09;;;;;;;4.47;1.30;;;15.30;99.90;;;;;;5112105;28;20436;-75
2022/10/26 07:37:36;;;;;;;2.37;1.80;;;15.30;99.90;;;;;;5112502;28;20466;-75
2022/10/26 07:40:03;;;;;;;2.50;1.90;;;15.30;99.90;;;;;;5111675;28;20440;-75
2022/10/26 07:42:30;;;;;;;2.03;1.27;;;15.30;99.90;;;;;;5112771;28;20428;-75
2022/10/26 07:44:58;;;;;;;1.90;1.33;;;15.50;99.90;;;;;;5112845;28;20436;-75
2022/10/26 07:47:24;;;;;;;2.00;1.70;;;15.50;99.90;;;;;;5112343;28;20503;-75
2022/10/26 07:49:53;;;;;;;1.83;1.63;;;15.50;99.90;;;;;;5111974;28;20468;-75
2022/10/26 07:52:19;;;;;;;1.50;1.17;;;15.50;99.90;;;;;;5111700;28;20459;-75
2022/10/26 07:54:46;;;;;;;2.80;2.03;;;15.60;99.90;;;;;;5112398;28;20457;-75
2022/10/26 07:57:13;;;;;;;2.20;1.57;;;15.60;99.90;;;;;;5112003;28;20444;-75
2022/10/26 07:59:40;;;;;;;1.77;1.20;;;15.70;99.90;;;;;;5111757;28;20988;-75
2022/10/26 08:02:08;;;;;;;1.80;1.13;;;15.80;99.90;;;;;;5111591;28;20770;-74
2022/10/26 08:04:36;;;;;;;1.70;1.30;;;15.90;28.00;;;;;;5112352;28;20467;-74
2022/10/26 08:07:04;;;;;;;2.93;1.50;;;16.00;43.50;;;;;;5111254;28;20542;-75
2022/10/26 08:09:31;;;;;;;2.40;1.23;;;16.00;1.00;;;;;;5111910;28;20432;-75
2022/10/26 08:11:58;;;;;;;3.17;1.60;;;16.10;1.00;;;;;;5112299;28;20432;-75
2022/10/26 08:14:25;;;;;;;2.00;1.30;;;16.00;4.50;;;;;;5112249;28;20428;-75
2022/10/26 08:16:52;;;;;;;8.93;1.20;;;16.10;1.00;;;;;;5105011;28;20452;-75
2022/10/26 08:19:19;;;;;;;3.73;1.33;;;16.20;1.00;;;;;;5102027;28;20754;-75
2022/10/26 08:21:46;;;;;;;2.63;1.43;;;16.20;1.00;;;;;;5112074;28;20436;-75
2022/10/26 08:24:14;;;;;;;4.70;1.90;;;16.20;1.00;;;;;;5111232;28;20514;-75
2022/10/26 08:26:41;;;;;;;1.77;1.23;;;16.20;27.50;;;;;;5112038;28;20476;-75
2022/10/26 08:29:08;;;;;;;4.10;1.20;;;16.20;41.40;;;;;;5111134;28;20440;-75
2022/10/26 08:31:35;;;;;;;2.93;1.20;;;16.20;16.90;;;;;;5112148;28;20440;-75
2022/10/26 08:34:03;;;;;;;3.93;1.63;;;16.30;11.50;;;;;;5111426;28;20856;-75
2022/10/26 08:36:30;;;;;;;2.03;1.30;;;16.30;1.00;;;;;;5116056;28;20439;-75
2022/10/26 08:38:57;;;;;;;2.27;1.87;;;16.30;1.00;;;;;;5115604;28;20443;-75
2022/10/26 08:41:35;;;;;;;1.77;1.30;;;16.40;1.00;;;;;;5116104;28;20840;-75
2022/10/26 08:44:10;;;;;;;2.60;1.30;;;16.40;1.00;;;;;;5115251;28;20424;-75
2022/10/26 08:46:44;;;;;;;2.33;1.50;;;16.40;1.00;;;;;;5115625;28;20451;-75
2022/10/26 08:49:19;;;;;;;1.63;1.37;;;16.50;1.00;;;;;;5114625;28;20532;-75
2022/10/26 08:51:47;;;;;;;2.97;1.60;;;16.50;1.00;;;;;;5115880;28;20435;-75
2022/10/26 08:54:20;;;;;;;1.83;1.40;;;16.50;1.00;;;;;;5114899;28;20431;-75
2022/10/26 08:56:54;;;;;;;1.83;1.30;;;16.50;1.00;;;;;;5115828;28;20432;-75
2022/10/26 08:59:30;;;;;;;2.97;1.83;;;16.80;1.00;;;;;;5114750;28;20439;-75
2022/10/26 09:01:56;;;;;;;1.73;1.30;;;16.80;1.00;;;;;;5115264;28;20438;-75
2022/10/26 09:04:28;;;;;;;1.57;1.10;;;16.90;1.00;;;;;;5106684;28;20436;-75
2022/10/26 09:07:01;;;;;;;4.27;1.70;;;16.90;1.00;;;;;;5115589;28;20755;-75
2022/10/26 09:09:39;;;;;;;2.53;1.27;;;17.00;1.00;;;;;;5115164;28;20439;-75
2022/10/26 09:12:13;;;;;;;4.17;1.60;;;17.10;99.90;;;;;;5115003;28;20444;-75
2022/10/26 09:14:48;;;;;;;1.50;1.10;;;17.10;1.00;;;;;;5115665;28;20810;-75
2022/10/26 09:17:23;;;;;;;2.97;1.40;;;17.10;1.00;;;;;;5115025;28;20455;-75
2022/10/26 09:20:06;;;;;;;2.10;1.43;;;17.10;1.00;;;;;;5114707;28;20907;-75
2022/10/26 09:22:45;;;;;;;2.70;1.20;;;17.30;99.90;;;;;;5115232;28;20432;-75
2022/10/26 09:25:18;;;;;;;2.27;1.30;;;17.30;99.90;;;;;;5114559;28;20752;-75
2022/10/26 09:27:49;;;;;;;1.70;1.30;;;17.40;99.90;;;;;;5115247;28;20475;-75
2022/10/26 09:30:18;;;;;;;3.00;1.30;;;17.30;99.90;;;;;;5113879;28;20938;-75
2022/10/26 09:32:47;;;;;;;2.03;1.10;;;17.40;99.90;;;;;;5115164;28;20435;-75
2022/10/26 09:35:18;;;;;;;2.73;1.27;;;17.40;99.90;;;;;;5114450;28;20436;-75
2022/10/26 09:37:50;;;;;;;2.10;1.30;;;17.40;99.90;;;;;;5114813;28;20530;-75
2022/10/26 09:40:22;;;;;;;1.33;1.07;;;17.40;99.90;;;;;;5114008;28;20438;-75
2022/10/26 09:42:56;;;;;;;1.33;1.10;;;17.60;76.10;;;;;;5114832;28;20438;-75
2022/10/26 09:45:30;;;;;;;4.50;1.60;;;17.80;1.00;;;;;;5114422;28;20437;-75
2022/10/26 09:48:01;;;;;;;2.97;1.90;;;18.00;99.90;;;;;;5114053;28;20472;-75
2022/10/26 09:50:32;;;;;;;2.80;1.40;;;18.20;1.00;;;;;;5114682;28;20783;-75
2022/10/26 09:52:59;;;;;;;4.60;1.60;;;18.30;1.00;;;;;;5114130;28;20443;-74
2022/10/26 09:55:26;;;;;;;2.70;1.17;;;18.50;99.90;;;;;;5114705;28;20448;-75
2022/10/26 09:57:58;;;;;;;2.77;1.10;;;18.90;1.00;;;;;;5114647;28;20440;-75
2022/10/26 10:00:27;;;;;;;2.80;1.80;;;19.10;1.00;;;;;;5114212;28;20451;-75
2022/10/26 10:02:55;;;;;;;2.47;0.97;;;19.40;1.00;;;;;;5114634;28;20543;-75
2022/10/26 10:05:27;;;;;;;4.90;1.30;;;19.60;99.90;;;;;;5113873;28;20444;-75
2022/10/26 10:08:10;;;;;;;1.50;1.13;;;19.60;1.00;;;;;;5114667;28;20836;-75
2022/10/26 10:10:37;;;;;;;3.23;2.00;;;19.50;1.00;;;;;;5114182;28;20432;-72
2022/10/26 10:13:17;;;;;;;2.43;0.90;;;19.40;93.70;;;;;;5113627;28;20938;-75
2022/10/26 10:15:53;;;;;;;1.50;1.30;;;19.40;99.90;;;;;;5114953;28;20447;-75
2022/10/26 10:18:22;;;;;;;4.40;1.50;;;19.40;99.90;;;;;;5114798;28;20443;-75
2022/10/26 10:20:54;;;;;;;3.40;1.10;;;19.30;99.90;;;;;;5121994;28;20504;-75
2022/10/26 10:23:30;;;;;;;1.87;1.27;;;19.10;99.90;;;;;;5125521;28;20463;-75
2022/10/26 10:26:06;;;;;;;2.40;1.10;;;19.10;1.00;;;;;;5128392;28;20446;-75
2022/10/26 10:28:35;;;;;;;1.73;1.23;;;19.20;99.90;;;;;;5109915;28;20463;-75
2022/10/26 10:31:04;;;;;;;2.97;1.23;;;19.40;99.90;;;;;;5125036;28;20432;-74
2022/10/26 10:33:37;;;;;;;2.53;1.10;;;19.20;1.00;;;;;;5127072;28;20446;-75
2022/10/26 10:36:08;;;;;;;1.73;1.53;;;19.60;91.20;;;;;;5127038;28;20779;-75
2022/10/26 10:38:44;;;;;;;3.83;1.37;;;19.90;1.00;;;;;;5121414;28;20511;-75
2022/10/26 10:41:21;;;;;;;1.47;0.90;;;19.80;1.00;;;;;;5114013;28;20475;-73
2022/10/26 10:43:52;;;;;;;5.73;1.20;;;19.80;1.00;;;;;;5115270;27;20432;-73
2022/10/26 10:46:22;;;;;;;4.50;2.10;;;19.70;29.10;;;;;;5114485;28;20460;-73
2022/10/26 10:48:54;;;;;;;1.90;1.20;;;19.70;1.00;;;;;;5112716;28;20491;-75
2022/10/26 10:51:24;;;;;;;2.70;1.40;;;19.60;99.90;;;;;;5113053;28;20428;-75
2022/10/26 10:53:52;;;;;;;2.30;1.13;;;19.80;99.90;;;;;;5113382;28;20485;-73
2022/10/26 10:56:41;;;;;;;2.50;1.90;;;19.90;99.90;;;;;;5112801;28;20783;-73
2022/10/26 10:59:49;;;;;;;2.70;1.20;;;19.80;99.90;;;;;;5112668;28;20440;-74
2022/10/26 11:02:33;;;;;;;1.17;0.90;;;19.90;1.00;;;;;;5029441;28;20514;-73
2022/10/26 11:05:27;;;;;;;2.73;1.13;;;20.00;99.90;;;;;;5029444;28;20475;-73
2022/10/26 11:08:02;;;;;;;1.50;1.20;;;20.30;1.00;;;;;;5091032;28;20472;-74
2022/10/26 11:10:35;;;;;;;2.77;1.10;;;20.50;99.90;;;;;;5112993;28;20431;-74
2022/10/26 11:13:06;;;;;;;1.33;1.03;;;20.80;1.00;;;;;;5112277;28;20442;-73
2022/10/26 11:15:40;;;;;;;1.87;1.10;;;20.90;1.00;;;;;;5113084;28;20546;-73
2022/10/26 11:18:14;;;;;;;2.83;1.40;;;20.90;99.90;;;;;;5111700;28;20910;-73
2022/10/26 11:20:46;;;;;;;3.33;1.23;;;20.90;52.30;;;;;;5113114;28;20428;-73
2022/10/26 11:23:20;;;;;;;2.23;1.03;;;20.90;1.00;;;;;;5111392;28;20474;-73
2022/10/26 11:25:51;;;;;;;2.00;1.00;;;20.80;1.00;;;;;;5112753;28;20436;-73
2022/10/26 11:28:22;;;;;;;2.00;1.10;;;20.60;1.00;;;;;;5112036;28;20467;-75
2022/10/26 11:30:57;;;;;;;1.37;0.87;;;20.60;1.00;;;;;;5112329;28;20432;-75
2022/10/26 11:33:30;;;;;;;2.40;1.70;;;20.70;1.00;;;;;;5113145;28;20432;-75
2022/10/26 11:36:01;;;;;;;5.93;1.53;;;20.90;1.00;;;;;;5112528;28;20436;-75
2022/10/26 11:38:34;;;;;;;4.10;1.00;;;21.00;1.00;;;;;;5112276;28;20440;-75
2022/10/26 11:41:10;;;;;;;1.40;0.90;;;21.10;99.90;;;;;;5111846;28;20428;-75
2022/10/26 11:43:41;;;;;;;1.57;1.20;;;21.10;99.90;;;;;;5112514;28;20435;-75
2022/10/26 11:46:13;;;;;;;8.03;1.00;;;21.40;99.90;;;;;;5111745;28;20452;-75
2022/10/26 11:48:47;;;;;;;1.63;0.90;;;21.50;99.90;;;;;;5111647;28;20484;-73
2022/10/26 11:51:20;;;;;;;5.53;2.37;;;21.50;99.90;;;;;;5111665;28;20436;-76
2022/10/26 11:53:48;;;;;;;1.93;1.10;;;21.40;99.90;;;;;;5112496;28;20432;-73
2022/10/26 11:56:24;;;;;;;1.20;0.80;;;21.50;99.90;;;;;;5111892;28;20440;-73
2022/10/26 11:58:52;;;;;;;1.53;0.93;;;21.40;99.90;;;;;;5112087;28;20443;-73
2022/10/26 12:01:20;;;;;;;2.23;1.10;;;21.60;99.90;;;;;;5111542;28;20893;-73
2022/10/26 12:03:52;;;;;;;2.00;1.10;;;21.90;99.90;;;;;;5112348;28;20443;-73
2022/10/26 12:06:22;;;;;;;2.40;1.23;;;21.60;99.90;;;;;;5111833;28;20885;-73
2022/10/26 12:08:55;;;;;;;1.10;0.87;;;21.60;99.90;;;;;;5111804;28;20474;-74
2022/10/26 12:11:35;;;;;;;1.63;1.00;;;21.40;99.90;;;;;;5111623;28;20455;-71
2022/10/26 12:14:14;;;;;;;2.77;1.20;;;21.50;99.90;;;;;;5105217;28;20429;-74
2022/10/26 12:16:53;;;;;;;2.43;1.10;;;21.50;99.90;;;;;;5114056;28;20551;-74
2022/10/26 12:19:26;;;;;;;1.73;0.80;;;21.50;99.90;;;;;;5111906;28;20794;-73
2022/10/26 12:21:53;;;;;;;1.70;0.73;;;21.50;99.90;;;;;;5114301;28;20489;-75
2022/10/26 12:24:34;;;;;;;0.90;0.70;;;21.60;99.90;;;;;;5104547;28;20445;-76
2022/10/26 12:27:02;;;;;;;2.40;1.17;;;21.50;99.90;;;;;;5113832;28;20436;-73
2022/10/26 12:29:42;;;;;;;2.20;0.90;;;21.40;99.90;;;;;;5116913;28;20478;-74
2022/10/26 12:32:48;;;;;;;1.57;1.00;;;21.40;99.90;;;;;;5115648;28;20439;-74
2022/10/26 12:35:37;;;;;;;1.17;0.70;;;21.10;99.90;;;;;;5115935;28;20428;-74
2022/10/26 12:38:27;;;;;;;3.40;1.10;;;21.20;99.90;;;;;;5116922;28;20467;-74
2022/10/26 12:41:13;;;;;;;3.20;1.53;;;21.10;99.90;;;;;;5110821;28;20440;-74
2022/10/26 12:43:41;;;;;;;3.03;1.20;;;21.30;99.90;;;;;;5111719;28;20442;-74
2022/10/26 12:46:41;;;;;;;2.40;0.70;;;21.50;99.90;;;;;;5117337;28;20461;-74
2022/10/26 12:49:55;;;;;;;1.30;0.90;;;21.30;99.90;;;;;;5116235;28;20490;-74
2022/10/26 12:52:47;;;;;;;2.27;0.90;;;21.30;99.90;;;;;;5116647;27;20461;-74
2022/10/26 12:55:56;;;;;;;1.30;0.80;;;21.40;99.90;;;;;;5116162;28;20436;-73
2022/10/26 12:59:03;;;;;;;3.50;1.00;;;21.50;99.90;;;;;;5117210;27;20435;-73
2022/10/26 13:02:03;;;;;;;3.87;1.33;;;21.70;99.90;;;;;;5110643;28;20451;-73
2022/10/26 13:05:15;;;;;;;4.03;1.13;;;22.20;99.90;;;;;;5113890;28;20436;-74
2022/10/26 13:07:43;;;;;;;2.87;1.10;;;22.20;99.90;;;;;;5105600;28;20431;-73
2022/10/26 13:10:21;;;;;;;2.20;0.80;;;22.50;99.90;;;;;;5110604;28;20983;-73
2022/10/26 13:12:51;;;;;;;2.80;1.00;;;22.70;99.90;;;;;;5113213;28;20444;-73